sensor_id;sensor_type;location;lat;lon;timestamp;P1;durP1;ratioP1;P2;durP2;ratioP2
41333;SDS011;27078;46.428;6.256;2023-03-23T00:01:30;2.58;;;1.10;;
41333;SDS011;27078;46.428;6.256;2023-03-23T00:03:57;2.92;;;1.10;;
41333;SDS011;27078;46.428;6.256;2023-03-23T00:06:25;2.35;;;1.02;;
41333;SDS011;27078;46.428;6.256;2023-03-23T00:08:52;4.72;;;1.20;;
41333;SDS011;27078;46.428;6.256;2023-03-23T00:11:24;2.35;;;1.15;;
41333;SDS011;27078;46.428;6.256;2023-03-23T00:13:53;3.25;;;1.30;;
41333;SDS011;27078;46.428;6.256;2023-03-23T00:16:22;3.15;;;1.40;;
41333;SDS011;27078;46.428;6.256;2023-03-23T00:19:01;3.13;;;1.40;;
41333;SDS011;27078;46.428;6.256;2023-03-23T00:21:29;2.28;;;1.23;;
41333;SDS011;27078;46.428;6.256;2023-03-23T00:24:00;2.17;;;1.30;;
41333;SDS011;27078;46.428;6.256;2023-03-23T00:26:28;2.90;;;1.23;;
41333;SDS011;27078;46.428;6.256;2023-03-23T00:28:54;1.48;;;1.00;;
41333;SDS011;27078;46.428;6.256;2023-03-23T00:31:20;3.63;;;1.40;;
41333;SDS011;27078;46.428;6.256;2023-03-23T00:33:45;3.47;;;1.40;;
41333;SDS011;27078;46.428;6.256;2023-03-23T00:36:11;2.78;;;1.27;;
41333;SDS011;27078;46.428;6.256;2023-03-23T00:38:38;2.90;;;1.20;;
41333;SDS011;27078;46.428;6.256;2023-03-23T00:41:05;3.55;;;1.40;;
41333;SDS011;27078;46.428;6.256;2023-03-23T00:43:31;2.70;;;1.40;;
41333;SDS011;27078;46.428;6.256;2023-03-23T00:46:00;2.63;;;1.40;;
41333;SDS011;27078;46.428;6.256;2023-03-23T00:48:28;2.63;;;1.38;;
41333;SDS011;27078;46.428;6.256;2023-03-23T00:50:54;2.15;;;1.40;;
41333;SDS011;27078;46.428;6.256;2023-03-23T00:53:21;2.17;;;1.10;;
41333;SDS011;27078;46.428;6.256;2023-03-23T00:55:47;2.80;;;1.20;;
41333;SDS011;27078;46.428;6.256;2023-03-23T00:58:14;3.63;;;1.58;;
41333;SDS011;27078;46.428;6.256;2023-03-23T01:00:41;2.53;;;1.40;;
41333;SDS011;27078;46.428;6.256;2023-03-23T01:03:07;2.22;;;1.20;;
41333;SDS011;27078;46.428;6.256;2023-03-23T01:05:36;3.55;;;1.20;;
41333;SDS011;27078;46.428;6.256;2023-03-23T01:08:06;3.97;;;1.42;;
41333;SDS011;27078;46.428;6.256;2023-03-23T01:10:31;2.22;;;1.20;;
41333;SDS011;27078;46.428;6.256;2023-03-23T01:12:58;2.50;;;1.10;;
41333;SDS011;27078;46.428;6.256;2023-03-23T01:15:28;4.38;;;1.42;;
41333;SDS011;27078;46.428;6.256;2023-03-23T01:17:54;3.80;;;1.33;;
41333;SDS011;27078;46.428;6.256;2023-03-23T01:20:20;2.58;;;1.08;;
41333;SDS011;27078;46.428;6.256;2023-03-23T01:22:45;2.83;;;1.33;;
41333;SDS011;27078;46.428;6.256;2023-03-23T01:25:11;4.18;;;1.27;;
41333;SDS011;27078;46.428;6.256;2023-03-23T01:27:38;3.15;;;1.27;;
41333;SDS011;27078;46.428;6.256;2023-03-23T01:30:04;2.42;;;1.27;;
41333;SDS011;27078;46.428;6.256;2023-03-23T01:32:30;2.55;;;1.40;;
41333;SDS011;27078;46.428;6.256;2023-03-23T01:34:56;4.05;;;1.35;;
41333;SDS011;27078;46.428;6.256;2023-03-23T01:37:22;3.78;;;1.30;;
41333;SDS011;27078;46.428;6.256;2023-03-23T01:39:55;3.65;;;1.48;;
41333;SDS011;27078;46.428;6.256;2023-03-23T01:42:25;2.95;;;1.35;;
41333;SDS011;27078;46.428;6.256;2023-03-23T01:47:45;3.60;;;1.40;;
41333;SDS011;27078;46.428;6.256;2023-03-23T01:50:14;1.95;;;1.30;;
41333;SDS011;27078;46.428;6.256;2023-03-23T01:52:40;2.75;;;1.30;;
41333;SDS011;27078;46.428;6.256;2023-03-23T01:55:05;3.47;;;1.40;;
41333;SDS011;27078;46.428;6.256;2023-03-23T01:57:31;2.55;;;1.30;;
41333;SDS011;27078;46.428;6.256;2023-03-23T01:59:57;2.88;;;1.38;;
41333;SDS011;27078;46.428;6.256;2023-03-23T02:02:33;2.38;;;1.20;;
41333;SDS011;27078;46.428;6.256;2023-03-23T02:05:01;2.25;;;1.20;;
41333;SDS011;27078;46.428;6.256;2023-03-23T02:07:31;2.70;;;1.52;;
41333;SDS011;27078;46.428;6.256;2023-03-23T02:09:57;2.85;;;1.17;;
41333;SDS011;27078;46.428;6.256;2023-03-23T02:12:24;4.88;;;1.50;;
41333;SDS011;27078;46.428;6.256;2023-03-23T02:14:50;2.97;;;1.40;;
41333;SDS011;27078;46.428;6.256;2023-03-23T02:17:37;2.92;;;1.30;;
41333;SDS011;27078;46.428;6.256;2023-03-23T02:34:04;1.95;;;1.10;;
41333;SDS011;27078;46.428;6.256;2023-03-23T02:36:46;2.38;;;1.20;;
41333;SDS011;27078;46.428;6.256;2023-03-23T02:39:24;2.17;;;1.20;;
41333;SDS011;27078;46.428;6.256;2023-03-23T02:41:56;2.75;;;1.27;;
41333;SDS011;27078;46.428;6.256;2023-03-23T02:44:29;3.70;;;1.27;;
41333;SDS011;27078;46.428;6.256;2023-03-23T02:46:57;2.15;;;1.15;;
41333;SDS011;27078;46.428;6.256;2023-03-23T02:49:26;2.47;;;1.23;;
41333;SDS011;27078;46.428;6.256;2023-03-23T02:51:54;3.05;;;1.27;;
41333;SDS011;27078;46.428;6.256;2023-03-23T02:54:22;2.22;;;1.08;;
41333;SDS011;27078;46.428;6.256;2023-03-23T02:56:50;2.35;;;1.10;;
41333;SDS011;27078;46.428;6.256;2023-03-23T02:59:17;2.72;;;1.13;;
41333;SDS011;27078;46.428;6.256;2023-03-23T03:04:12;2.50;;;1.10;;
41333;SDS011;27078;46.428;6.256;2023-03-23T03:12:04;3.53;;;1.40;;
41333;SDS011;27078;46.428;6.256;2023-03-23T03:14:40;1.98;;;1.10;;
41333;SDS011;27078;46.428;6.256;2023-03-23T03:19:49;2.20;;;1.20;;
41333;SDS011;27078;46.428;6.256;2023-03-23T03:22:18;2.33;;;1.38;;
41333;SDS011;27078;46.428;6.256;2023-03-23T03:24:46;2.65;;;1.50;;
41333;SDS011;27078;46.428;6.256;2023-03-23T03:27:15;1.92;;;1.20;;
41333;SDS011;27078;46.428;6.256;2023-03-23T03:29:43;2.88;;;1.25;;
41333;SDS011;27078;46.428;6.256;2023-03-23T03:32:15;2.03;;;1.20;;
41333;SDS011;27078;46.428;6.256;2023-03-23T03:34:45;2.03;;;1.15;;
41333;SDS011;27078;46.428;6.256;2023-03-23T03:37:10;2.55;;;1.20;;
41333;SDS011;27078;46.428;6.256;2023-03-23T03:39:36;2.22;;;1.20;;
41333;SDS011;27078;46.428;6.256;2023-03-23T03:42:03;2.65;;;1.20;;
41333;SDS011;27078;46.428;6.256;2023-03-23T03:44:31;3.53;;;1.27;;
41333;SDS011;27078;46.428;6.256;2023-03-23T03:46:58;2.92;;;1.45;;
41333;SDS011;27078;46.428;6.256;2023-03-23T03:49:23;2.83;;;1.38;;
41333;SDS011;27078;46.428;6.256;2023-03-23T03:51:49;2.15;;;1.17;;
41333;SDS011;27078;46.428;6.256;2023-03-23T03:54:14;1.98;;;1.13;;
41333;SDS011;27078;46.428;6.256;2023-03-23T03:56:40;4.28;;;1.27;;
41333;SDS011;27078;46.428;6.256;2023-03-23T03:59:07;1.92;;;1.30;;
41333;SDS011;27078;46.428;6.256;2023-03-23T04:01:35;2.13;;;1.25;;
41333;SDS011;27078;46.428;6.256;2023-03-23T04:04:01;1.88;;;1.10;;
41333;SDS011;27078;46.428;6.256;2023-03-23T04:06:27;2.75;;;1.30;;
41333;SDS011;27078;46.428;6.256;2023-03-23T04:08:57;2.83;;;1.10;;
41333;SDS011;27078;46.428;6.256;2023-03-23T04:11:24;2.28;;;1.17;;
41333;SDS011;27078;46.428;6.256;2023-03-23T04:13:50;2.92;;;1.10;;
41333;SDS011;27078;46.428;6.256;2023-03-23T04:16:15;3.00;;;1.27;;
41333;SDS011;27078;46.428;6.256;2023-03-23T04:18:41;2.30;;;0.98;;
41333;SDS011;27078;46.428;6.256;2023-03-23T04:21:07;1.92;;;1.08;;
41333;SDS011;27078;46.428;6.256;2023-03-23T04:23:33;2.10;;;1.10;;
41333;SDS011;27078;46.428;6.256;2023-03-23T04:26:00;1.70;;;1.10;;
41333;SDS011;27078;46.428;6.256;2023-03-23T04:28:27;2.95;;;1.30;;
41333;SDS011;27078;46.428;6.256;2023-03-23T04:30:53;3.75;;;1.30;;
41333;SDS011;27078;46.428;6.256;2023-03-23T04:33:19;3.38;;;1.40;;
41333;SDS011;27078;46.428;6.256;2023-03-23T04:35:50;2.17;;;1.25;;
41333;SDS011;27078;46.428;6.256;2023-03-23T04:38:16;3.67;;;1.30;;
41333;SDS011;27078;46.428;6.256;2023-03-23T04:40:45;3.45;;;1.30;;
41333;SDS011;27078;46.428;6.256;2023-03-23T04:43:11;2.75;;;1.25;;
41333;SDS011;27078;46.428;6.256;2023-03-23T04:45:37;3.05;;;1.10;;
41333;SDS011;27078;46.428;6.256;2023-03-23T04:48:06;2.60;;;1.25;;
41333;SDS011;27078;46.428;6.256;2023-03-23T04:50:33;2.13;;;1.15;;
41333;SDS011;27078;46.428;6.256;2023-03-23T04:53:00;2.53;;;1.20;;
41333;SDS011;27078;46.428;6.256;2023-03-23T04:55:29;2.85;;;1.20;;
41333;SDS011;27078;46.428;6.256;2023-03-23T04:57:56;2.13;;;1.15;;
41333;SDS011;27078;46.428;6.256;2023-03-23T05:00:25;1.90;;;1.10;;
41333;SDS011;27078;46.428;6.256;2023-03-23T05:02:51;3.10;;;1.40;;
41333;SDS011;27078;46.428;6.256;2023-03-23T05:05:16;2.20;;;1.40;;
41333;SDS011;27078;46.428;6.256;2023-03-23T05:07:43;2.75;;;1.35;;
41333;SDS011;27078;46.428;6.256;2023-03-23T05:10:09;2.97;;;1.45;;
41333;SDS011;27078;46.428;6.256;2023-03-23T05:12:36;3.25;;;1.30;;
41333;SDS011;27078;46.428;6.256;2023-03-23T05:15:02;3.25;;;1.20;;
41333;SDS011;27078;46.428;6.256;2023-03-23T05:17:28;2.92;;;1.45;;
41333;SDS011;27078;46.428;6.256;2023-03-23T05:19:55;3.50;;;1.75;;
41333;SDS011;27078;46.428;6.256;2023-03-23T05:22:21;2.78;;;1.60;;
41333;SDS011;27078;46.428;6.256;2023-03-23T05:24:48;3.30;;;1.65;;
41333;SDS011;27078;46.428;6.256;2023-03-23T05:27:16;4.43;;;1.80;;
41333;SDS011;27078;46.428;6.256;2023-03-23T05:29:43;2.60;;;1.45;;
41333;SDS011;27078;46.428;6.256;2023-03-23T05:32:11;2.40;;;1.40;;
41333;SDS011;27078;46.428;6.256;2023-03-23T05:34:36;3.00;;;1.50;;
41333;SDS011;27078;46.428;6.256;2023-03-23T05:37:02;7.60;;;1.77;;
41333;SDS011;27078;46.428;6.256;2023-03-23T05:39:28;3.35;;;1.60;;
41333;SDS011;27078;46.428;6.256;2023-03-23T05:41:54;2.80;;;1.60;;
41333;SDS011;27078;46.428;6.256;2023-03-23T05:44:20;2.58;;;1.52;;
41333;SDS011;27078;46.428;6.256;2023-03-23T05:46:46;3.65;;;1.65;;
41333;SDS011;27078;46.428;6.256;2023-03-23T05:49:11;2.03;;;1.35;;
41333;SDS011;27078;46.428;6.256;2023-03-23T05:51:38;3.22;;;1.40;;
41333;SDS011;27078;46.428;6.256;2023-03-23T05:54:04;4.75;;;1.60;;
41333;SDS011;27078;46.428;6.256;2023-03-23T05:56:30;2.15;;;1.35;;
41333;SDS011;27078;46.428;6.256;2023-03-23T05:58:56;2.55;;;1.63;;
41333;SDS011;27078;46.428;6.256;2023-03-23T06:01:21;2.60;;;1.60;;
41333;SDS011;27078;46.428;6.256;2023-03-23T06:03:48;2.88;;;1.50;;
41333;SDS011;27078;46.428;6.256;2023-03-23T06:06:16;2.35;;;1.50;;
41333;SDS011;27078;46.428;6.256;2023-03-23T06:08:42;3.00;;;1.63;;
41333;SDS011;27078;46.428;6.256;2023-03-23T06:11:08;2.55;;;1.50;;
41333;SDS011;27078;46.428;6.256;2023-03-23T06:13:33;2.03;;;1.45;;
41333;SDS011;27078;46.428;6.256;2023-03-23T06:15:59;3.83;;;1.80;;
41333;SDS011;27078;46.428;6.256;2023-03-23T06:18:24;3.42;;;1.40;;
41333;SDS011;27078;46.428;6.256;2023-03-23T06:20:50;6.13;;;1.75;;
41333;SDS011;27078;46.428;6.256;2023-03-23T06:23:16;5.70;;;1.70;;
41333;SDS011;27078;46.428;6.256;2023-03-23T06:25:42;3.42;;;1.40;;
41333;SDS011;27078;46.428;6.256;2023-03-23T06:28:08;3.83;;;1.60;;
41333;SDS011;27078;46.428;6.256;2023-03-23T06:30:34;3.35;;;1.50;;
41333;SDS011;27078;46.428;6.256;2023-03-23T06:33:00;4.47;;;1.73;;
41333;SDS011;27078;46.428;6.256;2023-03-23T06:35:27;3.40;;;1.80;;
41333;SDS011;27078;46.428;6.256;2023-03-23T06:37:52;4.72;;;1.70;;
41333;SDS011;27078;46.428;6.256;2023-03-23T06:40:19;3.85;;;1.65;;
41333;SDS011;27078;46.428;6.256;2023-03-23T06:42:44;3.63;;;1.67;;
41333;SDS011;27078;46.428;6.256;2023-03-23T06:45:10;3.40;;;1.30;;
41333;SDS011;27078;46.428;6.256;2023-03-23T06:47:35;4.07;;;1.60;;
41333;SDS011;27078;46.428;6.256;2023-03-23T06:50:00;3.65;;;1.63;;
41333;SDS011;27078;46.428;6.256;2023-03-23T06:52:26;3.80;;;1.65;;
41333;SDS011;27078;46.428;6.256;2023-03-23T06:54:52;3.38;;;1.58;;
41333;SDS011;27078;46.428;6.256;2023-03-23T06:57:17;7.97;;;2.00;;
41333;SDS011;27078;46.428;6.256;2023-03-23T06:59:44;2.60;;;1.30;;
41333;SDS011;27078;46.428;6.256;2023-03-23T07:02:10;3.70;;;1.30;;
41333;SDS011;27078;46.428;6.256;2023-03-23T07:04:36;4.93;;;1.85;;
41333;SDS011;27078;46.428;6.256;2023-03-23T07:07:03;5.07;;;1.83;;
41333;SDS011;27078;46.428;6.256;2023-03-23T07:09:29;3.90;;;1.40;;
41333;SDS011;27078;46.428;6.256;2023-03-23T07:11:54;4.65;;;1.67;;
41333;SDS011;27078;46.428;6.256;2023-03-23T07:14:19;2.83;;;1.50;;
41333;SDS011;27078;46.428;6.256;2023-03-23T07:16:46;4.45;;;1.50;;
41333;SDS011;27078;46.428;6.256;2023-03-23T07:19:12;3.55;;;1.45;;
41333;SDS011;27078;46.428;6.256;2023-03-23T07:21:37;3.63;;;1.40;;
41333;SDS011;27078;46.428;6.256;2023-03-23T07:24:03;3.13;;;1.40;;
41333;SDS011;27078;46.428;6.256;2023-03-23T07:26:28;2.78;;;1.40;;
41333;SDS011;27078;46.428;6.256;2023-03-23T07:28:54;2.75;;;1.30;;
41333;SDS011;27078;46.428;6.256;2023-03-23T07:31:19;2.55;;;1.50;;
41333;SDS011;27078;46.428;6.256;2023-03-23T07:33:45;3.22;;;1.45;;
41333;SDS011;27078;46.428;6.256;2023-03-23T07:36:10;1.92;;;1.20;;
41333;SDS011;27078;46.428;6.256;2023-03-23T07:38:36;3.45;;;1.40;;
41333;SDS011;27078;46.428;6.256;2023-03-23T07:41:01;2.95;;;1.15;;
41333;SDS011;27078;46.428;6.256;2023-03-23T07:43:28;4.30;;;1.58;;
41333;SDS011;27078;46.428;6.256;2023-03-23T07:45:53;2.72;;;1.45;;
41333;SDS011;27078;46.428;6.256;2023-03-23T07:48:18;2.97;;;1.50;;
41333;SDS011;27078;46.428;6.256;2023-03-23T07:50:44;3.70;;;1.40;;
41333;SDS011;27078;46.428;6.256;2023-03-23T07:53:09;3.17;;;1.25;;
41333;SDS011;27078;46.428;6.256;2023-03-23T07:55:35;2.25;;;1.30;;
41333;SDS011;27078;46.428;6.256;2023-03-23T07:58:00;5.82;;;1.58;;
41333;SDS011;27078;46.428;6.256;2023-03-23T08:00:26;3.15;;;1.40;;
41333;SDS011;27078;46.428;6.256;2023-03-23T08:02:55;3.35;;;1.50;;
41333;SDS011;27078;46.428;6.256;2023-03-23T08:05:22;2.17;;;1.40;;
41333;SDS011;27078;46.428;6.256;2023-03-23T08:07:51;4.95;;;1.38;;
41333;SDS011;27078;46.428;6.256;2023-03-23T08:10:19;3.25;;;1.70;;
41333;SDS011;27078;46.428;6.256;2023-03-23T08:12:47;3.28;;;1.95;;
41333;SDS011;27078;46.428;6.256;2023-03-23T08:15:16;7.75;;;1.60;;
41333;SDS011;27078;46.428;6.256;2023-03-23T08:17:42;3.08;;;1.38;;
41333;SDS011;27078;46.428;6.256;2023-03-23T08:20:08;3.78;;;1.42;;
41333;SDS011;27078;46.428;6.256;2023-03-23T08:22:38;2.88;;;1.30;;
41333;SDS011;27078;46.428;6.256;2023-03-23T08:25:08;2.67;;;1.33;;
41333;SDS011;27078;46.428;6.256;2023-03-23T08:27:35;4.80;;;1.40;;
41333;SDS011;27078;46.428;6.256;2023-03-23T08:30:01;3.42;;;1.40;;
41333;SDS011;27078;46.428;6.256;2023-03-23T08:32:27;3.00;;;1.38;;
41333;SDS011;27078;46.428;6.256;2023-03-23T08:34:53;4.13;;;1.30;;
41333;SDS011;27078;46.428;6.256;2023-03-23T08:37:18;3.15;;;1.63;;
41333;SDS011;27078;46.428;6.256;2023-03-23T08:39:44;3.72;;;1.27;;
41333;SDS011;27078;46.428;6.256;2023-03-23T08:42:10;3.08;;;1.30;;
41333;SDS011;27078;46.428;6.256;2023-03-23T08:44:36;3.85;;;1.23;;
41333;SDS011;27078;46.428;6.256;2023-03-23T08:47:02;2.92;;;1.55;;
41333;SDS011;27078;46.428;6.256;2023-03-23T08:49:30;3.47;;;1.60;;
41333;SDS011;27078;46.428;6.256;2023-03-23T08:51:58;3.85;;;1.60;;
41333;SDS011;27078;46.428;6.256;2023-03-23T08:54:24;3.13;;;1.60;;
41333;SDS011;27078;46.428;6.256;2023-03-23T08:56:50;1.58;;;0.95;;
41333;SDS011;27078;46.428;6.256;2023-03-23T08:59:15;2.83;;;1.20;;
41333;SDS011;27078;46.428;6.256;2023-03-23T09:01:41;2.95;;;1.10;;
41333;SDS011;27078;46.428;6.256;2023-03-23T09:04:07;4.18;;;1.30;;
41333;SDS011;27078;46.428;6.256;2023-03-23T09:06:34;3.72;;;1.30;;
41333;SDS011;27078;46.428;6.256;2023-03-23T09:09:01;2.75;;;1.20;;
41333;SDS011;27078;46.428;6.256;2023-03-23T09:11:31;2.55;;;1.10;;
41333;SDS011;27078;46.428;6.256;2023-03-23T09:13:57;2.08;;;1.00;;
41333;SDS011;27078;46.428;6.256;2023-03-23T09:16:23;1.77;;;0.90;;
41333;SDS011;27078;46.428;6.256;2023-03-23T09:18:48;2.78;;;1.30;;
41333;SDS011;27078;46.428;6.256;2023-03-23T09:21:15;2.80;;;1.00;;
41333;SDS011;27078;46.428;6.256;2023-03-23T09:23:40;4.03;;;1.33;;
41333;SDS011;27078;46.428;6.256;2023-03-23T09:26:09;3.97;;;1.02;;
41333;SDS011;27078;46.428;6.256;2023-03-23T09:28:34;4.47;;;1.10;;
41333;SDS011;27078;46.428;6.256;2023-03-23T09:31:00;2.58;;;1.25;;
41333;SDS011;27078;46.428;6.256;2023-03-23T09:33:25;2.40;;;1.30;;
41333;SDS011;27078;46.428;6.256;2023-03-23T09:35:52;2.95;;;1.17;;
41333;SDS011;27078;46.428;6.256;2023-03-23T09:38:17;3.47;;;1.40;;
41333;SDS011;27078;46.428;6.256;2023-03-23T09:48:51;5.03;;;1.55;;
41333;SDS011;27078;46.428;6.256;2023-03-23T09:54:05;3.97;;;1.50;;
41333;SDS011;27078;46.428;6.256;2023-03-23T09:56:54;2.50;;;1.20;;
41333;SDS011;27078;46.428;6.256;2023-03-23T09:59:29;2.45;;;1.20;;
41333;SDS011;27078;46.428;6.256;2023-03-23T10:02:14;3.42;;;1.42;;
41333;SDS011;27078;46.428;6.256;2023-03-23T10:07:22;3.00;;;1.23;;
41333;SDS011;27078;46.428;6.256;2023-03-23T10:09:57;2.90;;;1.25;;
41333;SDS011;27078;46.428;6.256;2023-03-23T10:12:48;5.88;;;1.20;;
41333;SDS011;27078;46.428;6.256;2023-03-23T10:15:20;2.55;;;1.10;;
41333;SDS011;27078;46.428;6.256;2023-03-23T10:20:43;2.20;;;1.08;;
41333;SDS011;27078;46.428;6.256;2023-03-23T10:25:55;2.63;;;1.00;;
41333;SDS011;27078;46.428;6.256;2023-03-23T10:31:08;2.70;;;1.08;;
41333;SDS011;27078;46.428;6.256;2023-03-23T10:39:09;3.42;;;0.90;;
41333;SDS011;27078;46.428;6.256;2023-03-23T10:41:37;2.30;;;1.10;;
41333;SDS011;27078;46.428;6.256;2023-03-23T10:44:15;2.78;;;1.10;;
41333;SDS011;27078;46.428;6.256;2023-03-23T10:46:47;4.03;;;1.02;;
41333;SDS011;27078;46.428;6.256;2023-03-23T10:49:23;2.13;;;1.05;;
41333;SDS011;27078;46.428;6.256;2023-03-23T10:52:10;1.88;;;0.80;;
41333;SDS011;27078;46.428;6.256;2023-03-23T10:57:46;1.67;;;0.90;;
41333;SDS011;27078;46.428;6.256;2023-03-23T11:00:24;1.88;;;0.82;;
41333;SDS011;27078;46.428;6.256;2023-03-23T11:03:03;2.00;;;0.80;;
41333;SDS011;27078;46.428;6.256;2023-03-23T11:05:40;4.40;;;0.60;;
41333;SDS011;27078;46.428;6.256;2023-03-23T11:08:21;1.42;;;0.80;;
41333;SDS011;27078;46.428;6.256;2023-03-23T11:13:17;1.88;;;0.73;;
41333;SDS011;27078;46.428;6.256;2023-03-23T11:15:45;3.97;;;0.90;;
41333;SDS011;27078;46.428;6.256;2023-03-23T11:20:45;2.78;;;0.80;;
41333;SDS011;27078;46.428;6.256;2023-03-23T11:23:17;2.03;;;0.70;;
41333;SDS011;27078;46.428;6.256;2023-03-23T11:28:52;1.65;;;0.80;;
41333;SDS011;27078;46.428;6.256;2023-03-23T11:31:19;1.90;;;0.70;;
41333;SDS011;27078;46.428;6.256;2023-03-23T11:36:17;2.65;;;0.80;;
41333;SDS011;27078;46.428;6.256;2023-03-23T11:38:43;2.03;;;0.90;;
41333;SDS011;27078;46.428;6.256;2023-03-23T11:41:12;2.42;;;0.90;;
41333;SDS011;27078;46.428;6.256;2023-03-23T11:43:44;2.15;;;0.77;;
41333;SDS011;27078;46.428;6.256;2023-03-23T11:48:50;2.88;;;0.90;;
41333;SDS011;27078;46.428;6.256;2023-03-23T11:56:51;3.10;;;1.02;;
41333;SDS011;27078;46.428;6.256;2023-03-23T11:59:18;1.35;;;0.82;;
41333;SDS011;27078;46.428;6.256;2023-03-23T12:04:30;1.60;;;0.90;;
41333;SDS011;27078;46.428;6.256;2023-03-23T12:09:58;3.67;;;1.20;;
41333;SDS011;27078;46.428;6.256;2023-03-23T12:15:29;4.68;;;1.23;;
41333;SDS011;27078;46.428;6.256;2023-03-23T12:23:53;2.95;;;1.10;;
41333;SDS011;27078;46.428;6.256;2023-03-23T12:26:47;2.38;;;1.13;;
41333;SDS011;27078;46.428;6.256;2023-03-23T12:29:35;3.35;;;1.30;;
41333;SDS011;27078;46.428;6.256;2023-03-23T12:34:41;3.00;;;1.33;;
41333;SDS011;27078;46.428;6.256;2023-03-23T12:37:30;1.95;;;1.17;;
41333;SDS011;27078;46.428;6.256;2023-03-23T12:45:37;2.95;;;1.27;;
41333;SDS011;27078;46.428;6.256;2023-03-23T12:48:29;2.88;;;1.33;;
41333;SDS011;27078;46.428;6.256;2023-03-23T12:51:10;3.67;;;1.10;;
41333;SDS011;27078;46.428;6.256;2023-03-23T12:53:38;2.97;;;1.30;;
41333;SDS011;27078;46.428;6.256;2023-03-23T12:59:25;2.60;;;1.40;;
41333;SDS011;27078;46.428;6.256;2023-03-23T13:02:03;2.58;;;1.17;;
41333;SDS011;27078;46.428;6.256;2023-03-23T13:04:37;1.90;;;1.13;;
41333;SDS011;27078;46.428;6.256;2023-03-23T13:07:06;4.28;;;1.38;;
41333;SDS011;27078;46.428;6.256;2023-03-23T13:12:12;2.45;;;1.30;;
41333;SDS011;27078;46.428;6.256;2023-03-23T13:25:18;4.18;;;1.48;;
41333;SDS011;27078;46.428;6.256;2023-03-23T13:27:58;4.47;;;1.55;;
41333;SDS011;27078;46.428;6.256;2023-03-23T13:30:26;4.47;;;1.35;;
41333;SDS011;27078;46.428;6.256;2023-03-23T13:32:53;3.17;;;1.20;;
41333;SDS011;27078;46.428;6.256;2023-03-23T13:35:32;4.28;;;1.55;;
41333;SDS011;27078;46.428;6.256;2023-03-23T13:38:01;4.00;;;1.55;;
41333;SDS011;27078;46.428;6.256;2023-03-23T13:40:35;3.50;;;1.38;;
41333;SDS011;27078;46.428;6.256;2023-03-23T13:43:07;3.17;;;1.60;;
41333;SDS011;27078;46.428;6.256;2023-03-23T13:45:43;3.47;;;1.38;;
41333;SDS011;27078;46.428;6.256;2023-03-23T13:53:15;3.63;;;1.40;;
41333;SDS011;27078;46.428;6.256;2023-03-23T13:55:50;3.75;;;1.63;;
41333;SDS011;27078;46.428;6.256;2023-03-23T13:58:28;4.10;;;1.42;;
41333;SDS011;27078;46.428;6.256;2023-03-23T14:01:10;2.15;;;1.40;;
41333;SDS011;27078;46.428;6.256;2023-03-23T14:03:41;3.63;;;1.52;;
41333;SDS011;27078;46.428;6.256;2023-03-23T14:06:15;3.30;;;1.50;;
41333;SDS011;27078;46.428;6.256;2023-03-23T14:08:45;3.03;;;1.50;;
41333;SDS011;27078;46.428;6.256;2023-03-23T14:11:23;4.88;;;1.48;;
41333;SDS011;27078;46.428;6.256;2023-03-23T14:16:43;5.45;;;1.40;;
41333;SDS011;27078;46.428;6.256;2023-03-23T14:19:13;3.63;;;1.30;;
41333;SDS011;27078;46.428;6.256;2023-03-23T14:21:48;4.95;;;1.70;;
41333;SDS011;27078;46.428;6.256;2023-03-23T14:24:16;4.30;;;1.77;;
41333;SDS011;27078;46.428;6.256;2023-03-23T14:26:44;4.82;;;1.77;;
41333;SDS011;27078;46.428;6.256;2023-03-23T14:29:13;4.97;;;1.70;;
41333;SDS011;27078;46.428;6.256;2023-03-23T14:31:39;2.58;;;1.48;;
41333;SDS011;27078;46.428;6.256;2023-03-23T14:34:13;3.08;;;1.67;;
41333;SDS011;27078;46.428;6.256;2023-03-23T14:36:40;2.75;;;1.50;;
41333;SDS011;27078;46.428;6.256;2023-03-23T14:41:41;3.55;;;1.90;;
41333;SDS011;27078;46.428;6.256;2023-03-23T14:44:08;6.80;;;1.85;;
41333;SDS011;27078;46.428;6.256;2023-03-23T14:46:39;3.80;;;1.52;;
41333;SDS011;27078;46.428;6.256;2023-03-23T14:49:10;3.13;;;1.60;;
41333;SDS011;27078;46.428;6.256;2023-03-23T14:51:46;4.72;;;1.95;;
41333;SDS011;27078;46.428;6.256;2023-03-23T14:54:13;3.85;;;2.25;;
41333;SDS011;27078;46.428;6.256;2023-03-23T14:56:38;4.78;;;1.83;;
41333;SDS011;27078;46.428;6.256;2023-03-23T14:59:05;4.05;;;2.00;;
41333;SDS011;27078;46.428;6.256;2023-03-23T15:01:35;3.78;;;2.05;;
41333;SDS011;27078;46.428;6.256;2023-03-23T15:04:10;6.03;;;1.98;;
41333;SDS011;27078;46.428;6.256;2023-03-23T15:06:39;5.30;;;2.38;;
41333;SDS011;27078;46.428;6.256;2023-03-23T15:09:18;3.67;;;2.10;;
41333;SDS011;27078;46.428;6.256;2023-03-23T15:11:55;6.00;;;2.42;;
41333;SDS011;27078;46.428;6.256;2023-03-23T15:14:32;8.68;;;2.50;;
41333;SDS011;27078;46.428;6.256;2023-03-23T15:17:10;4.70;;;2.15;;
41333;SDS011;27078;46.428;6.256;2023-03-23T15:19:43;4.35;;;2.00;;
41333;SDS011;27078;46.428;6.256;2023-03-23T15:24:40;5.28;;;1.67;;
41333;SDS011;27078;46.428;6.256;2023-03-23T15:30:11;4.03;;;1.77;;
41333;SDS011;27078;46.428;6.256;2023-03-23T15:32:52;4.43;;;1.75;;
41333;SDS011;27078;46.428;6.256;2023-03-23T15:35:25;5.25;;;1.90;;
41333;SDS011;27078;46.428;6.256;2023-03-23T15:37:58;2.70;;;1.85;;
41333;SDS011;27078;46.428;6.256;2023-03-23T15:40:26;3.72;;;1.80;;
41333;SDS011;27078;46.428;6.256;2023-03-23T15:51:14;3.72;;;1.75;;
41333;SDS011;27078;46.428;6.256;2023-03-23T15:53:41;2.78;;;1.90;;
41333;SDS011;27078;46.428;6.256;2023-03-23T15:56:07;3.85;;;1.77;;
41333;SDS011;27078;46.428;6.256;2023-03-23T15:58:35;3.50;;;1.90;;
41333;SDS011;27078;46.428;6.256;2023-03-23T16:01:02;2.78;;;1.80;;
41333;SDS011;27078;46.428;6.256;2023-03-23T16:06:24;5.15;;;1.90;;
41333;SDS011;27078;46.428;6.256;2023-03-23T16:08:52;3.63;;;1.80;;
41333;SDS011;27078;46.428;6.256;2023-03-23T16:11:18;3.28;;;1.70;;
41333;SDS011;27078;46.428;6.256;2023-03-23T16:13:44;3.85;;;1.70;;
41333;SDS011;27078;46.428;6.256;2023-03-23T16:16:13;3.38;;;1.80;;
41333;SDS011;27078;46.428;6.256;2023-03-23T16:18:41;5.47;;;1.90;;
41333;SDS011;27078;46.428;6.256;2023-03-23T16:21:07;4.05;;;1.70;;
41333;SDS011;27078;46.428;6.256;2023-03-23T16:23:33;3.15;;;1.80;;
41333;SDS011;27078;46.428;6.256;2023-03-23T16:25:58;4.18;;;2.00;;
41333;SDS011;27078;46.428;6.256;2023-03-23T16:28:23;3.17;;;1.67;;
41333;SDS011;27078;46.428;6.256;2023-03-23T16:30:49;4.45;;;1.85;;
41333;SDS011;27078;46.428;6.256;2023-03-23T16:33:14;4.03;;;1.83;;
41333;SDS011;27078;46.428;6.256;2023-03-23T16:35:40;4.47;;;1.77;;
41333;SDS011;27078;46.428;6.256;2023-03-23T16:38:05;4.70;;;1.60;;
41333;SDS011;27078;46.428;6.256;2023-03-23T16:40:31;2.72;;;1.35;;
41333;SDS011;27078;46.428;6.256;2023-03-23T16:42:57;3.58;;;1.65;;
41333;SDS011;27078;46.428;6.256;2023-03-23T16:45:23;4.47;;;1.65;;
41333;SDS011;27078;46.428;6.256;2023-03-23T16:47:50;2.67;;;1.80;;
41333;SDS011;27078;46.428;6.256;2023-03-23T16:50:16;2.78;;;1.48;;
41333;SDS011;27078;46.428;6.256;2023-03-23T16:52:43;4.30;;;1.73;;
41333;SDS011;27078;46.428;6.256;2023-03-23T16:55:11;3.95;;;1.98;;
41333;SDS011;27078;46.428;6.256;2023-03-23T16:57:38;4.57;;;2.03;;
41333;SDS011;27078;46.428;6.256;2023-03-23T17:00:05;5.45;;;1.85;;
41333;SDS011;27078;46.428;6.256;2023-03-23T17:02:32;3.28;;;1.85;;
41333;SDS011;27078;46.428;6.256;2023-03-23T17:04:58;2.97;;;1.70;;
41333;SDS011;27078;46.428;6.256;2023-03-23T17:07:23;2.47;;;1.60;;
41333;SDS011;27078;46.428;6.256;2023-03-23T17:09:49;4.10;;;1.60;;
41333;SDS011;27078;46.428;6.256;2023-03-23T17:12:15;3.67;;;1.70;;
41333;SDS011;27078;46.428;6.256;2023-03-23T17:14:41;3.17;;;1.80;;
41333;SDS011;27078;46.428;6.256;2023-03-23T17:17:06;2.55;;;1.73;;
41333;SDS011;27078;46.428;6.256;2023-03-23T17:19:31;3.10;;;1.80;;